sensor_id;sensor_type;location;lat;lon;timestamp;P1;durP1;ratioP1;P2;durP2;ratioP2
24301;SDS011;12421;49.732;20.078;2022-12-18T00:09:13;79.40;;;32.30;;
24301;SDS011;12421;49.732;20.078;2022-12-18T00:19:17;90.40;;;37.80;;
24301;SDS011;12421;49.732;20.078;2022-12-18T00:29:21;97.60;;;37.40;;
24301;SDS011;12421;49.732;20.078;2022-12-18T00:39:25;75.50;;;31.10;;
24301;SDS011;12421;49.732;20.078;2022-12-18T00:49:29;96.00;;;36.90;;
24301;SDS011;12421;49.732;20.078;2022-12-18T00:59:34;75.10;;;29.80;;
24301;SDS011;12421;49.732;20.078;2022-12-18T01:09:37;96.20;;;33.30;;
24301;SDS011;12421;49.732;20.078;2022-12-18T01:19:41;75.60;;;26.90;;
24301;SDS011;12421;49.732;20.078;2022-12-18T01:29:45;58.60;;;22.50;;
24301;SDS011;12421;49.732;20.078;2022-12-18T01:39:49;66.80;;;26.00;;
24301;SDS011;12421;49.732;20.078;2022-12-18T01:49:56;83.10;;;30.20;;
24301;SDS011;12421;49.732;20.078;2022-12-18T02:00:05;71.80;;;25.80;;
24301;SDS011;12421;49.732;20.078;2022-12-18T02:10:20;66.00;;;24.00;;
24301;SDS011;12421;49.732;20.078;2022-12-18T02:31:23;63.80;;;25.00;;
24301;SDS011;12421;49.732;20.078;2022-12-18T02:41:31;55.40;;;21.90;;
24301;SDS011;12421;49.732;20.078;2022-12-18T02:51:41;51.70;;;21.20;;
24301;SDS011;12421;49.732;20.078;2022-12-18T03:02:11;56.40;;;22.40;;
24301;SDS011;12421;49.732;20.078;2022-12-18T03:12:43;45.50;;;19.60;;
24301;SDS011;12421;49.732;20.078;2022-12-18T03:22:53;40.60;;;16.90;;
24301;SDS011;12421;49.732;20.078;2022-12-18T03:33:12;56.60;;;21.60;;
24301;SDS011;12421;49.732;20.078;2022-12-18T03:53:50;45.40;;;18.00;;
24301;SDS011;12421;49.732;20.078;2022-12-18T04:04:06;50.70;;;20.10;;
24301;SDS011;12421;49.732;20.078;2022-12-18T04:14:13;45.90;;;19.60;;
24301;SDS011;12421;49.732;20.078;2022-12-18T04:24:24;42.10;;;16.60;;
24301;SDS011;12421;49.732;20.078;2022-12-18T04:34:37;43.30;;;17.40;;
24301;SDS011;12421;49.732;20.078;2022-12-18T04:44:42;41.20;;;17.10;;
24301;SDS011;12421;49.732;20.078;2022-12-18T04:54:46;52.40;;;20.80;;
24301;SDS011;12421;49.732;20.078;2022-12-18T05:04:50;54.60;;;22.90;;
24301;SDS011;12421;49.732;20.078;2022-12-18T05:14:54;44.90;;;20.30;;
24301;SDS011;12421;49.732;20.078;2022-12-18T05:24:58;51.30;;;21.20;;
24301;SDS011;12421;49.732;20.078;2022-12-18T05:35:03;58.30;;;22.20;;
24301;SDS011;12421;49.732;20.078;2022-12-18T05:45:08;61.70;;;23.90;;
24301;SDS011;12421;49.732;20.078;2022-12-18T05:55:12;64.70;;;24.50;;
24301;SDS011;12421;49.732;20.078;2022-12-18T06:05:16;68.60;;;23.40;;
24301;SDS011;12421;49.732;20.078;2022-12-18T06:15:20;55.50;;;22.80;;
24301;SDS011;12421;49.732;20.078;2022-12-18T06:25:25;49.80;;;19.70;;
24301;SDS011;12421;49.732;20.078;2022-12-18T06:35:29;61.90;;;25.00;;
24301;SDS011;12421;49.732;20.078;2022-12-18T06:45:33;61.60;;;24.90;;
24301;SDS011;12421;49.732;20.078;2022-12-18T06:55:37;52.30;;;21.60;;
24301;SDS011;12421;49.732;20.078;2022-12-18T07:05:41;41.20;;;18.40;;
24301;SDS011;12421;49.732;20.078;2022-12-18T07:15:45;53.80;;;21.30;;
24301;SDS011;12421;49.732;20.078;2022-12-18T07:25:49;59.40;;;24.30;;
24301;SDS011;12421;49.732;20.078;2022-12-18T07:35:53;57.00;;;25.50;;
24301;SDS011;12421;49.732;20.078;2022-12-18T07:45:57;49.70;;;22.60;;
24301;SDS011;12421;49.732;20.078;2022-12-18T07:56:05;61.20;;;24.60;;
24301;SDS011;12421;49.732;20.078;2022-12-18T08:06:30;56.20;;;25.50;;
24301;SDS011;12421;49.732;20.078;2022-12-18T08:16:34;54.50;;;25.00;;
24301;SDS011;12421;49.732;20.078;2022-12-18T08:26:38;58.80;;;26.70;;
24301;SDS011;12421;49.732;20.078;2022-12-18T08:36:43;63.70;;;27.50;;
24301;SDS011;12421;49.732;20.078;2022-12-18T08:46:46;61.50;;;27.50;;
24301;SDS011;12421;49.732;20.078;2022-12-18T08:56:51;55.30;;;24.90;;
24301;SDS011;12421;49.732;20.078;2022-12-18T09:06:56;54.10;;;25.10;;
24301;SDS011;12421;49.732;20.078;2022-12-18T09:16:59;55.10;;;29.10;;
24301;SDS011;12421;49.732;20.078;2022-12-18T09:27:04;57.80;;;28.30;;
24301;SDS011;12421;49.732;20.078;2022-12-18T09:37:09;61.20;;;30.50;;
24301;SDS011;12421;49.732;20.078;2022-12-18T09:57:40;59.20;;;27.00;;
24301;SDS011;12421;49.732;20.078;2022-12-18T10:07:52;41.40;;;21.10;;
24301;SDS011;12421;49.732;20.078;2022-12-18T10:18:15;32.70;;;17.70;;
24301;SDS011;12421;49.732;20.078;2022-12-18T10:28:29;32.50;;;18.40;;
24301;SDS011;12421;49.732;20.078;2022-12-18T10:38:34;40.70;;;21.40;;
24301;SDS011;12421;49.732;20.078;2022-12-18T10:58:43;33.60;;;17.30;;
24301;SDS011;12421;49.732;20.078;2022-12-18T11:09:01;35.40;;;16.50;;
24301;SDS011;12421;49.732;20.078;2022-12-18T11:19:38;34.60;;;17.20;;
24301;SDS011;12421;49.732;20.078;2022-12-18T11:29:44;30.90;;;16.50;;
24301;SDS011;12421;49.732;20.078;2022-12-18T11:39:50;30.30;;;15.40;;
24301;SDS011;12421;49.732;20.078;2022-12-18T11:50:00;25.10;;;13.90;;
24301;SDS011;12421;49.732;20.078;2022-12-18T12:00:12;35.50;;;17.00;;
24301;SDS011;12421;49.732;20.078;2022-12-18T12:41:33;36.60;;;18.20;;
24301;SDS011;12421;49.732;20.078;2022-12-18T12:52:06;38.30;;;18.40;;
24301;SDS011;12421;49.732;20.078;2022-12-18T13:02:20;40.60;;;18.20;;
24301;SDS011;12421;49.732;20.078;2022-12-18T13:23:01;44.70;;;20.80;;
24301;SDS011;12421;49.732;20.078;2022-12-18T13:53:48;39.80;;;18.20;;
24301;SDS011;12421;49.732;20.078;2022-12-18T14:04:11;32.50;;;15.80;;
24301;SDS011;12421;49.732;20.078;2022-12-18T14:14:20;45.00;;;20.80;;
24301;SDS011;12421;49.732;20.078;2022-12-18T14:24:33;48.00;;;20.40;;
24301;SDS011;12421;49.732;20.078;2022-12-18T14:34:38;62.60;;;24.80;;
24301;SDS011;12421;49.732;20.078;2022-12-18T14:44:42;50.00;;;21.80;;
24301;SDS011;12421;49.732;20.078;2022-12-18T14:55:14;54.60;;;21.70;;
24301;SDS011;12421;49.732;20.078;2022-12-18T15:05:29;52.60;;;22.00;;
24301;SDS011;12421;49.732;20.078;2022-12-18T15:36:01;100.50;;;33.60;;
24301;SDS011;12421;49.732;20.078;2022-12-18T15:46:17;89.40;;;30.00;;
24301;SDS011;12421;49.732;20.078;2022-12-18T15:56:27;65.30;;;25.70;;
24301;SDS011;12421;49.732;20.078;2022-12-18T16:06:52;86.80;;;32.00;;
24301;SDS011;12421;49.732;20.078;2022-12-18T16:17:18;112.00;;;39.30;;
24301;SDS011;12421;49.732;20.078;2022-12-18T16:27:24;85.50;;;33.80;;
24301;SDS011;12421;49.732;20.078;2022-12-18T16:37:30;126.90;;;46.40;;
24301;SDS011;12421;49.732;20.078;2022-12-18T16:47:37;122.80;;;43.50;;
24301;SDS011;12421;49.732;20.078;2022-12-18T16:57:43;123.70;;;44.40;;
24301;SDS011;12421;49.732;20.078;2022-12-18T17:07:50;132.00;;;48.70;;
24301;SDS011;12421;49.732;20.078;2022-12-18T17:17:56;113.90;;;40.50;;
24301;SDS011;12421;49.732;20.078;2022-12-18T17:28:07;119.10;;;42.20;;
24301;SDS011;12421;49.732;20.078;2022-12-18T17:38:14;111.60;;;42.60;;
24301;SDS011;12421;49.732;20.078;2022-12-18T17:48:20;134.10;;;46.20;;
24301;SDS011;12421;49.732;20.078;2022-12-18T17:58:27;123.50;;;41.40;;
24301;SDS011;12421;49.732;20.078;2022-12-18T18:08:34;159.30;;;57.10;;
24301;SDS011;12421;49.732;20.078;2022-12-18T18:18:41;136.10;;;45.30;;
24301;SDS011;12421;49.732;20.078;2022-12-18T18:28:48;137.30;;;49.30;;
24301;SDS011;12421;49.732;20.078;2022-12-18T18:38:53;155.30;;;57.50;;
24301;SDS011;12421;49.732;20.078;2022-12-18T18:48:59;166.10;;;59.00;;
24301;SDS011;12421;49.732;20.078;2022-12-18T18:59:04;169.50;;;55.40;;
24301;SDS011;12421;49.732;20.078;2022-12-18T19:09:11;156.00;;;52.50;;
24301;SDS011;12421;49.732;20.078;2022-12-18T19:19:35;200.80;;;62.80;;
24301;SDS011;12421;49.732;20.078;2022-12-18T19:30:02;181.90;;;56.30;;
24301;SDS011;12421;49.732;20.078;2022-12-18T19:40:10;159.10;;;55.90;;
24301;SDS011;12421;49.732;20.078;2022-12-18T19:50:18;145.30;;;51.00;;
24301;SDS011;12421;49.732;20.078;2022-12-18T20:00:23;151.50;;;51.20;;
24301;SDS011;12421;49.732;20.078;2022-12-18T20:10:29;147.60;;;50.90;;
24301;SDS011;12421;49.732;20.078;2022-12-18T20:20:36;138.50;;;49.90;;
24301;SDS011;12421;49.732;20.078;2022-12-18T20:30:42;155.70;;;52.90;;
24301;SDS011;12421;49.732;20.078;2022-12-18T20:40:51;163.00;;;52.70;;
24301;SDS011;12421;49.732;20.078;2022-12-18T20:51:11;139.50;;;46.80;;
24301;SDS011;12421;49.732;20.078;2022-12-18T21:01:25;142.30;;;50.20;;
24301;SDS011;12421;49.732;20.078;2022-12-18T21:11:31;179.50;;;61.60;;
24301;SDS011;12421;49.732;20.078;2022-12-18T21:32:00;173.10;;;55.40;;
24301;SDS011;12421;49.732;20.078;2022-12-18T21:42:05;143.20;;;50.70;;
24301;SDS011;12421;49.732;20.078;2022-12-18T21:52:28;159.40;;;51.60;;
24301;SDS011;12421;49.732;20.078;2022-12-18T22:02:34;193.40;;;62.90;;
24301;SDS011;12421;49.732;20.078;2022-12-18T22:12:39;209.90;;;62.40;;
24301;SDS011;12421;49.732;20.078;2022-12-18T22:22:47;161.50;;;55.80;;
24301;SDS011;12421;49.732;20.078;2022-12-18T22:32:54;157.90;;;53.40;;
24301;SDS011;12421;49.732;20.078;2022-12-18T22:42:58;142.90;;;48.80;;
24301;SDS011;12421;49.732;20.078;2022-12-18T22:53:02;88.30;;;35.40;;
24301;SDS011;12421;49.732;20.078;2022-12-18T23:03:06;133.30;;;48.30;;
24301;SDS011;12421;49.732;20.078;2022-12-18T23:13:12;133.70;;;41.00;;
24301;SDS011;12421;49.732;20.078;2022-12-18T23:23:16;124.30;;;48.90;;
24301;SDS011;12421;49.732;20.078;2022-12-18T23:33:20;137.50;;;45.20;;
24301;SDS011;12421;49.732;20.078;2022-12-18T23:43:25;120.30;;;43.60;;
24301;SDS011;12421;49.732;20.078;2022-12-18T23:53:30;125.50;;;43.40;;
